Time;durP1;ratioP1;P1;durP2;ratioP2;P2;SDS_P1;SDS_P2;PMS_P1;PMS_P2;Temp;Humidity;BMP_temperature;BMP_pressure;BME280_temperature;BME280_humidity;BME280_pressure;Samples;Min_cycle;Max_cycle;Signal;HPM_P1;HPM_P2
2023/01/11 00:00:25;;;;;;;14.90;9.77;;;;;;;;;;4991454;28;20033;-61
2023/01/11 00:02:55;;;;;;;14.70;10.40;;;;;;;;;;4999808;28;20477;-60
2023/01/11 00:05:22;;;;;;;15.05;10.57;;;;;;;;;;5008231;28;20437;-61
2023/01/11 00:07:48;;;;;;;14.68;10.30;;;;;;;;;;5008988;28;20034;-59
2023/01/11 00:10:14;;;;;;;17.73;11.20;;;;;;;;;;5010070;28;20056;-59
2023/01/11 00:12:40;;;;;;;15.57;10.40;;;;;;;;;;5009852;28;20030;-60
2023/01/11 00:15:06;;;;;;;15.15;10.10;;;;;;;;;;5010187;28;20036;-62
2023/01/11 00:17:32;;;;;;;15.15;10.15;;;;;;;;;;5010077;28;20165;-61
2023/01/11 00:19:58;;;;;;;15.00;10.18;;;;;;;;;;5011082;28;20029;-61
2023/01/11 00:22:24;;;;;;;14.55;10.07;;;;;;;;;;5012264;28;20026;-61
2023/01/11 00:24:50;;;;;;;14.45;9.95;;;;;;;;;;5012204;28;20445;-60
2023/01/11 00:27:16;;;;;;;14.45;10.23;;;;;;;;;;5012185;28;20018;-60
2023/01/11 00:29:42;;;;;;;14.88;10.18;;;;;;;;;;5012292;28;20117;-61
2023/01/11 00:32:08;;;;;;;14.90;9.73;;;;;;;;;;5012217;28;20026;-61
2023/01/11 00:34:34;;;;;;;14.82;9.75;;;;;;;;;;5012000;28;20104;-59
2023/01/11 00:37:00;;;;;;;14.75;9.55;;;;;;;;;;5011070;28;20073;-62
2023/01/11 00:39:26;;;;;;;14.40;9.40;;;;;;;;;;5012802;28;20022;-59
2023/01/11 00:50:06;;;;;;;15.93;9.35;;;;;;;;;;5013560;28;20445;-61
2023/01/11 00:52:32;;;;;;;16.77;10.02;;;;;;;;;;5013621;28;20022;-56
2023/01/11 00:54:58;;;;;;;14.30;8.93;;;;;;;;;;5012055;28;20040;-60
2023/01/11 00:57:24;;;;;;;14.32;9.15;;;;;;;;;;5012355;28;20018;-61
2023/01/11 00:59:50;;;;;;;14.20;9.05;;;;;;;;;;5013501;28;20037;-61
2023/01/11 01:02:16;;;;;;;14.20;8.85;;;;;;;;;;5013489;28;20026;-61
2023/01/11 01:04:42;;;;;;;14.48;9.40;;;;;;;;;;5012806;28;20421;-61
2023/01/11 01:07:08;;;;;;;14.25;9.10;;;;;;;;;;5013189;28;20040;-62
2023/01/11 01:09:34;;;;;;;13.98;9.07;;;;;;;;;;5011747;28;20036;-60
2023/01/11 01:12:01;;;;;;;13.80;8.60;;;;;;;;;;5013339;28;20130;-63
2023/01/11 01:14:28;;;;;;;14.40;8.85;;;;;;;;;;5012780;28;20394;-61
2023/01/11 01:17:06;;;;;;;14.07;8.75;;;;;;;;;;5012951;28;20029;-61
2023/01/11 01:19:33;;;;;;;15.85;8.90;;;;;;;;;;5011188;28;20080;-59
2023/01/11 01:21:59;;;;;;;14.00;8.75;;;;;;;;;;5012872;28;20404;-61
2023/01/11 01:24:29;;;;;;;14.43;8.50;;;;;;;;;;5012473;28;20506;-60
2023/01/11 01:26:56;;;;;;;13.98;8.88;;;;;;;;;;5012388;28;20473;-56
2023/01/11 01:29:22;;;;;;;13.43;8.38;;;;;;;;;;5012711;28;20026;-60
2023/01/11 01:31:48;;;;;;;13.93;8.50;;;;;;;;;;5012652;28;20030;-60
2023/01/11 01:34:14;;;;;;;13.90;8.63;;;;;;;;;;5012295;28;20030;-61
2023/01/11 01:36:40;;;;;;;13.90;8.55;;;;;;;;;;5012529;28;20030;-60
2023/01/11 01:39:07;;;;;;;15.48;9.25;;;;;;;;;;5012633;28;20022;-60
2023/01/11 01:41:33;;;;;;;15.10;9.15;;;;;;;;;;5012335;28;20433;-60
2023/01/11 01:44:01;;;;;;;14.10;8.75;;;;;;;;;;5012192;28;20030;-58
2023/01/11 01:46:28;;;;;;;14.50;8.90;;;;;;;;;;5012614;28;20034;-62
2023/01/11 01:48:57;;;;;;;14.00;8.77;;;;;;;;;;5012463;28;20022;-59
2023/01/11 01:51:27;;;;;;;13.93;8.90;;;;;;;;;;5012324;28;20088;-62
2023/01/11 01:53:55;;;;;;;14.18;8.82;;;;;;;;;;5011913;28;20044;-60
2023/01/11 01:56:27;;;;;;;13.68;8.60;;;;;;;;;;5012345;28;20508;-60
2023/01/11 01:58:59;;;;;;;13.90;8.50;;;;;;;;;;5012268;28;20021;-60
2023/01/11 02:04:12;;;;;;;13.80;8.40;;;;;;;;;;5012512;28;20167;-59
2023/01/11 02:06:38;;;;;;;;;;;;;;;;;;5011600;28;20116;-60
2023/01/11 02:09:12;;;;;;;14.00;8.50;;;;;;;;;;5011197;28;20373;-61
2023/01/11 02:11:42;;;;;;;13.80;8.50;;;;;;;;;;5012092;28;20046;-60
2023/01/11 02:14:10;;;;;;;13.85;8.50;;;;;;;;;;5011826;28;20018;-58
2023/01/11 02:16:37;;;;;;;14.98;8.65;;;;;;;;;;5010859;28;20410;-61
2023/01/11 02:19:04;;;;;;;13.63;8.50;;;;;;;;;;5011989;28;20046;-61
2023/01/11 02:21:48;;;;;;;15.15;8.80;;;;;;;;;;5012024;28;20076;-60
2023/01/11 02:24:44;;;;;;;14.00;8.77;;;;;;;;;;5011477;28;20445;-59
2023/01/11 02:27:15;;;;;;;13.68;8.57;;;;;;;;;;5010663;28;20113;-62
2023/01/11 02:29:44;;;;;;;13.73;8.60;;;;;;;;;;5011818;28;20108;-60
2023/01/11 02:32:14;;;;;;;14.25;8.80;;;;;;;;;;5011771;28;20022;-61
2023/01/11 02:34:46;;;;;;;13.80;8.90;;;;;;;;;;5011607;28;20061;-59
2023/01/11 02:37:11;;;;;;;14.40;9.25;;;;;;;;;;5011818;28;20053;-60
2023/01/11 02:39:44;;;;;;;15.70;9.30;;;;;;;;;;5013607;28;20471;-57
2023/01/11 02:45:36;;;;;;;14.30;9.25;;;;;;;;;;4990422;28;20704;-62
2023/01/11 02:48:02;;;;;;;14.07;9.13;;;;;;;;;;5015690;28;20030;-60
2023/01/11 02:50:49;;;;;;;13.80;8.95;;;;;;;;;;5015562;28;20026;-59
2023/01/11 02:53:15;;;;;;;15.43;9.32;;;;;;;;;;5015180;28;20049;-60
2023/01/11 02:55:42;;;;;;;13.95;9.10;;;;;;;;;;5015253;28;20030;-60
2023/01/11 02:58:10;;;;;;;14.15;9.10;;;;;;;;;;5015492;28;20471;-59
2023/01/11 03:00:40;;;;;;;13.80;8.80;;;;;;;;;;5015454;28;20112;-60
2023/01/11 03:03:17;;;;;;;14.43;9.32;;;;;;;;;;5015154;28;20494;-60
2023/01/11 03:05:53;;;;;;;14.52;9.60;;;;;;;;;;5015292;28;20479;-59
2023/01/11 03:08:29;;;;;;;15.07;9.20;;;;;;;;;;5015172;28;20486;-60
2023/01/11 03:10:55;;;;;;;14.32;9.85;;;;;;;;;;5015227;28;20068;-61
2023/01/11 03:13:25;;;;;;;14.02;9.60;;;;;;;;;;5014880;28;20050;-61
2023/01/11 03:15:52;;;;;;;18.52;10.20;;;;;;;;;;5015170;28;20029;-60
2023/01/11 03:18:37;;;;;;;15.35;10.05;;;;;;;;;;5013797;28;20389;-59
2023/01/11 03:21:12;;;;;;;14.85;10.57;;;;;;;;;;4995494;28;20096;-61
2023/01/11 03:23:41;;;;;;;15.38;11.00;;;;;;;;;;4995055;28;20035;-60
2023/01/11 03:26:10;;;;;;;15.65;13.48;;;;;;;;;;4995506;28;20558;-61
2023/01/11 03:28:39;;;;;;;19.08;17.17;;;;;;;;;;4995362;28;20077;-61
2023/01/11 03:31:14;;;;;;;21.95;19.83;;;;;;;;;;4995362;28;20125;-60
2023/01/11 03:34:16;;;;;;;30.25;27.95;;;;;;;;;;4995019;28;20050;-60
2023/01/11 03:36:52;;;;;;;36.40;33.83;;;;;;;;;;4934739;29;20034;-56
2023/01/11 03:39:24;;;;;;;35.58;32.97;;;;;;;;;;4987182;28;20034;-62
2023/01/11 03:41:56;;;;;;;43.47;40.58;;;;;;;;;;4995070;28;20022;-61
2023/01/11 03:44:23;;;;;;;47.97;44.78;;;;;;;;;;4994670;28;20025;-60
2023/01/11 03:46:51;;;;;;;50.70;47.40;;;;;;;;;;4994885;28;20101;-60
2023/01/11 03:49:27;;;;;;;48.38;45.25;;;;;;;;;;4994799;28;20479;-60
2023/01/11 03:51:53;;;;;;;46.83;43.72;;;;;;;;;;4994689;28;20030;-58
2023/01/11 03:54:24;;;;;;;47.03;43.97;;;;;;;;;;4994473;28;20022;-60
2023/01/11 03:56:56;;;;;;;45.28;42.30;;;;;;;;;;4994675;28;20019;-58
2023/01/11 03:59:22;;;;;;;45.35;42.25;;;;;;;;;;4994643;28;20023;-61
2023/01/11 04:01:48;;;;;;;43.88;40.88;;;;;;;;;;4994692;28;20018;-60
2023/01/11 04:04:14;;;;;;;44.60;41.60;;;;;;;;;;4994318;28;20030;-61
2023/01/11 04:06:40;;;;;;;44.38;41.38;;;;;;;;;;4994497;28;20437;-61
2023/01/11 04:09:06;;;;;;;43.70;40.63;;;;;;;;;;4994526;28;20037;-60
2023/01/11 04:11:32;;;;;;;43.58;40.58;;;;;;;;;;4994492;28;20102;-59
2023/01/11 04:13:58;;;;;;;45.38;42.28;;;;;;;;;;4994172;28;20042;-60
2023/01/11 04:16:24;;;;;;;42.78;39.78;;;;;;;;;;4994307;28;20422;-58
2023/01/11 04:18:50;;;;;;;44.88;41.85;;;;;;;;;;4994348;28;20034;-59
2023/01/11 04:21:16;;;;;;;47.88;44.67;;;;;;;;;;4994318;28;20068;-58
2023/01/11 04:23:42;;;;;;;46.22;43.03;;;;;;;;;;4993709;28;20030;-60
2023/01/11 04:26:08;;;;;;;46.00;42.75;;;;;;;;;;4994603;28;20041;-59
2023/01/11 04:28:34;;;;;;;44.72;41.72;;;;;;;;;;4994596;28;20066;-58
2023/01/11 04:31:00;;;;;;;44.00;40.95;;;;;;;;;;4994808;28;20054;-59
2023/01/11 04:33:26;;;;;;;45.33;42.22;;;;;;;;;;4993047;28;20030;-58
2023/01/11 04:35:52;;;;;;;43.83;40.75;;;;;;;;;;4994555;28;20031;-56
2023/01/11 04:38:18;;;;;;;42.05;39.15;;;;;;;;;;4994428;28;20077;-59
2023/01/11 04:40:44;;;;;;;45.88;42.85;;;;;;;;;;4994118;28;20392;-59
2023/01/11 04:43:10;;;;;;;44.47;41.33;;;;;;;;;;4993930;28;20061;-60
2023/01/11 04:45:36;;;;;;;43.15;40.15;;;;;;;;;;4993977;28;20286;-57
2023/01/11 04:48:02;;;;;;;42.35;39.35;;;;;;;;;;4993884;28;20038;-58
2023/01/11 04:50:28;;;;;;;43.35;40.30;;;;;;;;;;4993863;28;20040;-58
2023/01/11 04:52:54;;;;;;;42.97;39.97;;;;;;;;;;4993843;28;20022;-60
2023/01/11 04:55:20;;;;;;;43.08;40.08;;;;;;;;;;4993371;28;20026;-54
2023/01/11 04:57:46;;;;;;;44.38;41.30;;;;;;;;;;4993629;28;20018;-56
2023/01/11 05:00:14;;;;;;;41.53;38.63;;;;;;;;;;4993634;28;20472;-54
2023/01/11 05:02:40;;;;;;;41.45;38.55;;;;;;;;;;4992479;28;20479;-57
2023/01/11 05:05:07;;;;;;;42.67;39.67;;;;;;;;;;4993154;28;20041;-57
2023/01/11 05:07:33;;;;;;;40.42;37.53;;;;;;;;;;4993508;28;20602;-58
2023/01/11 05:09:59;;;;;;;40.83;37.92;;;;;;;;;;4992361;28;20030;-55
2023/01/11 05:12:25;;;;;;;42.17;38.97;;;;;;;;;;4993697;28;20022;-57
2023/01/11 05:14:51;;;;;;;41.63;38.53;;;;;;;;;;4993369;28;20027;-60
2023/01/11 05:17:17;;;;;;;40.80;37.70;;;;;;;;;;4993704;28;20418;-58
2023/01/11 05:19:43;;;;;;;41.47;38.47;;;;;;;;;;4992005;28;20041;-58
2023/01/11 05:22:09;;;;;;;41.22;38.22;;;;;;;;;;4991905;28;20037;-58
2023/01/11 05:24:35;;;;;;;41.55;38.55;;;;;;;;;;4991328;28;20121;-59
2023/01/11 05:27:02;;;;;;;42.20;39.20;;;;;;;;;;4991758;28;20064;-59
2023/01/11 05:29:28;;;;;;;45.17;41.97;;;;;;;;;;4992926;28;20057;-57
2023/01/11 05:31:55;;;;;;;47.60;44.25;;;;;;;;;;4992918;28;20026;-61
2023/01/11 05:34:21;;;;;;;44.97;41.78;;;;;;;;;;4992631;28;20034;-56
2023/01/11 05:36:47;;;;;;;43.92;40.83;;;;;;;;;;4992799;28;20613;-60
2023/01/11 05:39:13;;;;;;;44.47;41.28;;;;;;;;;;4992824;28;20030;-59
2023/01/11 05:41:39;;;;;;;43.97;40.88;;;;;;;;;;4992702;28;20458;-56
2023/01/11 05:46:51;;;;;;;47.53;44.08;;;;;;;;;;4993065;28;20045;-55
2023/01/11 05:49:17;;;;;;;48.10;44.70;;;;;;;;;;4991162;28;20038;-57
2023/01/11 05:51:43;;;;;;;48.35;44.95;;;;;;;;;;4992749;28;20030;-56
2023/01/11 05:54:11;;;;;;;47.63;44.05;;;;;;;;;;4992438;28;20033;-57
2023/01/11 05:56:37;;;;;;;46.33;43.03;;;;;;;;;;4991444;28;20026;-58
2023/01/11 05:59:03;;;;;;;47.30;43.70;;;;;;;;;;4991129;28;20026;-58
2023/01/11 06:01:30;;;;;;;45.83;42.42;;;;;;;;;;4992473;28;20038;-59
2023/01/11 06:03:56;;;;;;;44.78;41.50;;;;;;;;;;4992099;28;20177;-56
2023/01/11 06:06:22;;;;;;;44.55;41.30;;;;;;;;;;4992397;28;20154;-57
2023/01/11 06:08:48;;;;;;;43.28;40.17;;;;;;;;;;4992704;28;20026;-57
2023/01/11 06:11:15;;;;;;;42.55;39.33;;;;;;;;;;4992814;28;20038;-57
2023/01/11 06:13:41;;;;;;;41.60;38.40;;;;;;;;;;4992026;28;20036;-55
2023/01/11 06:16:09;;;;;;;44.55;41.25;;;;;;;;;;4992217;28;20030;-54
2023/01/11 06:18:37;;;;;;;40.15;37.13;;;;;;;;;;4990570;28;20442;-56
2023/01/11 06:21:03;;;;;;;40.38;37.40;;;;;;;;;;4992188;28;20029;-56
2023/01/11 06:23:30;;;;;;;39.85;36.95;;;;;;;;;;4991732;28;20033;-56
2023/01/11 06:25:56;;;;;;;38.55;35.75;;;;;;;;;;4991434;28;20035;-56
2023/01/11 06:28:22;;;;;;;41.17;38.08;;;;;;;;;;4991452;28;20325;-58
2023/01/11 06:30:52;;;;;;;40.60;37.55;;;;;;;;;;4991343;28;20438;-57
2023/01/11 06:33:18;;;;;;;42.85;39.67;;;;;;;;;;4991421;28;20057;-58
2023/01/11 06:35:44;;;;;;;43.03;39.97;;;;;;;;;;4991530;28;20470;-53
2023/01/11 06:38:11;;;;;;;42.42;39.42;;;;;;;;;;4991386;28;20132;-56
2023/01/11 06:40:38;;;;;;;41.97;38.97;;;;;;;;;;4991708;28;20054;-58
2023/01/11 06:43:04;;;;;;;44.17;40.92;;;;;;;;;;4989848;28;20077;-54
2023/01/11 06:45:30;;;;;;;40.47;37.47;;;;;;;;;;4991011;28;20472;-55
2023/01/11 06:47:57;;;;;;;42.55;39.45;;;;;;;;;;4990904;28;20045;-58
2023/01/11 06:50:23;;;;;;;43.47;40.28;;;;;;;;;;4991328;28;20076;-57
2023/01/11 06:52:55;;;;;;;44.10;40.90;;;;;;;;;;4991408;28;20441;-56
2023/01/11 06:55:22;;;;;;;41.08;37.97;;;;;;;;;;4991194;28;20387;-55
2023/01/11 06:57:48;;;;;;;42.28;39.10;;;;;;;;;;4992232;28;20031;-56
2023/01/11 07:00:15;;;;;;;42.33;39.13;;;;;;;;;;4991186;28;20025;-53
2023/01/11 07:02:41;;;;;;;40.47;37.47;;;;;;;;;;4991197;28;20022;-55
2023/01/11 07:05:07;;;;;;;41.22;38.03;;;;;;;;;;4991290;28;20026;-55
2023/01/11 07:07:33;;;;;;;40.33;37.22;;;;;;;;;;4991600;28;20022;-56
2023/01/11 07:09:59;;;;;;;40.47;37.47;;;;;;;;;;4989900;28;20069;-53
2023/01/11 07:12:25;;;;;;;41.35;38.20;;;;;;;;;;4991201;28;20069;-57
2023/01/11 07:14:51;;;;;;;45.20;39.60;;;;;;;;;;4991026;28;20102;-55
2023/01/11 07:17:17;;;;;;;43.55;40.10;;;;;;;;;;4990664;28;20241;-53
2023/01/11 07:19:43;;;;;;;41.45;38.25;;;;;;;;;;4990792;28;20026;-56
2023/01/11 07:22:09;;;;;;;40.70;37.40;;;;;;;;;;4991029;28;20022;-58
2023/01/11 07:24:35;;;;;;;41.47;38.22;;;;;;;;;;4990916;28;20031;-60
2023/01/11 07:27:01;;;;;;;42.00;38.80;;;;;;;;;;4994839;28;20048;-60
2023/01/11 07:29:28;;;;;;;44.38;40.88;;;;;;;;;;4994950;28;20026;-59
2023/01/11 07:31:54;;;;;;;44.97;41.40;;;;;;;;;;5002089;28;20129;-57
2023/01/11 07:34:20;;;;;;;45.05;41.55;;;;;;;;;;5013890;28;20105;-58
2023/01/11 07:36:46;;;;;;;45.53;42.08;;;;;;;;;;5014409;28;20106;-55
2023/01/11 07:39:12;;;;;;;47.00;43.42;;;;;;;;;;5014179;28;20105;-57
2023/01/11 07:44:23;;;;;;;45.15;41.35;;;;;;;;;;5012995;28;20100;-52
2023/01/11 07:46:49;;;;;;;45.88;42.38;;;;;;;;;;5012776;28;20466;-56
2023/01/11 07:49:15;;;;;;;46.25;42.75;;;;;;;;;;5013647;28;20045;-54
2023/01/11 07:51:41;;;;;;;46.47;42.78;;;;;;;;;;5013962;28;20070;-53
2023/01/11 07:54:07;;;;;;;45.42;41.92;;;;;;;;;;5013008;28;20030;-57
2023/01/11 07:56:33;;;;;;;45.88;42.22;;;;;;;;;;5013633;28;20490;-54
2023/01/11 07:58:59;;;;;;;48.00;44.22;;;;;;;;;;5013473;28;20073;-58
2023/01/11 08:01:25;;;;;;;47.15;43.42;;;;;;;;;;5013503;28;20049;-53
2023/01/11 08:03:51;;;;;;;45.65;42.15;;;;;;;;;;5013418;28;20386;-56
2023/01/11 08:06:17;;;;;;;44.90;41.40;;;;;;;;;;5013963;28;20036;-58
2023/01/11 08:08:43;;;;;;;43.60;40.20;;;;;;;;;;5013575;28;20045;-56
2023/01/11 08:16:39;;;;;;;48.25;44.22;;;;;;;;;;5013810;28;20064;-52
2023/01/11 08:19:05;;;;;;;51.15;47.15;;;;;;;;;;5013795;28;20390;-50
2023/01/11 08:21:31;;;;;;;51.25;47.08;;;;;;;;;;5013299;28;20020;-52
2023/01/11 08:23:57;;;;;;;51.58;47.38;;;;;;;;;;5011905;28;20034;-59
2023/01/11 08:26:24;;;;;;;52.45;48.25;;;;;;;;;;5013387;28;20402;-58
2023/01/11 08:28:50;;;;;;;52.90;48.60;;;;;;;;;;5013683;28;20084;-53
2023/01/11 08:31:16;;;;;;;54.13;49.53;;;;;;;;;;5013484;28;20022;-53
2023/01/11 08:33:42;;;;;;;49.70;45.47;;;;;;;;;;5012172;28;20398;-51
2023/01/11 08:36:10;;;;;;;50.00;45.63;;;;;;;;;;5013838;28;20052;-53
2023/01/11 08:38:36;;;;;;;50.20;45.83;;;;;;;;;;5013920;28;20356;-54
2023/01/11 08:41:09;;;;;;;52.17;48.13;;;;;;;;;;5012350;28;20133;-59
2023/01/11 08:43:35;;;;;;;53.42;49.33;;;;;;;;;;5013652;28;20057;-57
2023/01/11 08:46:01;;;;;;;57.17;52.55;;;;;;;;;;5013587;28;20057;-58
2023/01/11 08:48:27;;;;;;;56.05;51.67;;;;;;;;;;5013463;28;20113;-54
2023/01/11 08:50:53;;;;;;;58.03;53.15;;;;;;;;;;5013299;28;20409;-58
2023/01/11 08:53:19;;;;;;;59.50;54.80;;;;;;;;;;5012817;28;20481;-59
2023/01/11 08:55:48;;;;;;;58.08;53.40;;;;;;;;;;5012807;28;20032;-58
2023/01/11 08:58:15;;;;;;;60.97;55.75;;;;;;;;;;5013018;28;20472;-59
2023/01/11 09:00:41;;;;;;;60.83;55.40;;;;;;;;;;5013282;28;20018;-55
2023/01/11 09:03:07;;;;;;;58.83;54.15;;;;;;;;;;5012709;28;20026;-57
2023/01/11 09:05:33;;;;;;;57.58;52.97;;;;;;;;;;5012717;28;20032;-55
2023/01/11 09:08:00;;;;;;;57.45;52.90;;;;;;;;;;5011655;28;20108;-55
2023/01/11 09:10:26;;;;;;;57.00;52.47;;;;;;;;;;5011795;28;20390;-57
2023/01/11 09:12:55;;;;;;;59.35;54.50;;;;;;;;;;5012823;28;20037;-59
2023/01/11 09:15:22;;;;;;;58.42;53.55;;;;;;;;;;5012027;28;20030;-57
2023/01/11 09:17:48;;;;;;;58.20;53.50;;;;;;;;;;5013007;28;20037;-59
2023/01/11 09:20:14;;;;;;;55.08;50.47;;;;;;;;;;5011469;28;20400;-57
2023/01/11 09:22:40;;;;;;;54.08;49.80;;;;;;;;;;5012565;28;20093;-57
2023/01/11 09:25:07;;;;;;;54.78;50.42;;;;;;;;;;5012175;28;20038;-52
2023/01/11 09:27:33;;;;;;;55.75;51.35;;;;;;;;;;5012251;28;20080;-54
2023/01/11 09:30:00;;;;;;;54.92;50.45;;;;;;;;;;5012481;28;20033;-54
2023/01/11 09:32:26;;;;;;;53.90;49.58;;;;;;;;;;5012200;28;20049;-56
2023/01/11 09:34:56;;;;;;;52.90;48.67;;;;;;;;;;5011940;28;20018;-54
2023/01/11 09:37:22;;;;;;;50.53;46.40;;;;;;;;;;5012513;28;20022;-51
2023/01/11 09:39:50;;;;;;;51.55;47.05;;;;;;;;;;5012474;28;20036;-58
2023/01/11 09:42:23;;;;;;;48.93;44.77;;;;;;;;;;5012654;28;20026;-54
2023/01/11 09:44:56;;;;;;;44.95;41.15;;;;;;;;;;5011884;28;20072;-55
2023/01/11 09:47:41;;;;;;;44.85;40.80;;;;;;;;;;5010749;28;20398;-58
2023/01/11 09:50:12;;;;;;;46.35;42.22;;;;;;;;;;5012432;28;20030;-59
2023/01/11 09:52:41;;;;;;;46.53;42.38;;;;;;;;;;5011965;28;20037;-60
2023/01/11 09:55:21;;;;;;;45.58;41.17;;;;;;;;;;5011789;28;20438;-61
2023/01/11 09:58:06;;;;;;;44.83;40.22;;;;;;;;;;5011547;28;20026;-56
2023/01/11 10:00:41;;;;;;;43.03;39.10;;;;;;;;;;5010643;28;20018;-61
2023/01/11 10:03:09;;;;;;;44.97;40.45;;;;;;;;;;5009865;28;20026;-60
2023/01/11 10:05:54;;;;;;;42.15;38.35;;;;;;;;;;5011307;28;20061;-61
2023/01/11 10:08:41;;;;;;;43.25;39.05;;;;;;;;;;5011805;28;20033;-60
2023/01/11 10:11:07;;;;;;;47.80;40.22;;;;;;;;;;5012223;28;20105;-59
2023/01/11 10:13:44;;;;;;;41.05;37.47;;;;;;;;;;5011024;28;20113;-58
2023/01/11 10:16:23;;;;;;;39.50;35.80;;;;;;;;;;5010048;28;20157;-61
2023/01/11 10:19:03;;;;;;;40.00;35.80;;;;;;;;;;5011919;28;20018;-59
2023/01/11 10:21:41;;;;;;;43.30;36.72;;;;;;;;;;5012152;28;20014;-60
2023/01/11 10:24:13;;;;;;;39.67;35.95;;;;;;;;;;5012210;28;20084;-63
2023/01/11 10:26:40;;;;;;;38.97;35.05;;;;;;;;;;5011794;28;20052;-60
2023/01/11 10:34:37;;;;;;;43.10;33.83;;;;;;;;;;5011733;28;20533;-59
2023/01/11 10:37:46;;;;;;;33.80;30.58;;;;;;;;;;5012159;28;20022;-59
2023/01/11 10:43:07;;;;;;;28.98;26.17;;;;;;;;;;5011765;28;20035;-56
2023/01/11 10:45:39;;;;;;;34.33;26.08;;;;;;;;;;5011614;28;20050;-59
2023/01/11 10:48:15;;;;;;;26.52;22.55;;;;;;;;;;5011647;28;20397;-56
2023/01/11 10:50:45;;;;;;;27.17;23.60;;;;;;;;;;5011795;28;20394;-63
2023/01/11 10:53:11;;;;;;;25.83;22.13;;;;;;;;;;5011437;28;20105;-60
2023/01/11 10:55:38;;;;;;;22.08;18.80;;;;;;;;;;5011681;28;20022;-59
2023/01/11 10:58:10;;;;;;;24.45;19.20;;;;;;;;;;5011675;28;20478;-57
2023/01/11 11:00:39;;;;;;;24.98;17.38;;;;;;;;;;5013801;28;20036;-60
2023/01/11 11:03:24;;;;;;;23.33;15.93;;;;;;;;;;5015243;28;20022;-63
2023/01/11 11:05:59;;;;;;;24.70;15.55;;;;;;;;;;5015882;28;20101;-62
2023/01/11 11:08:32;;;;;;;23.85;15.60;;;;;;;;;;5015255;28;20022;-60
2023/01/11 11:11:08;;;;;;;26.92;15.73;;;;;;;;;;5014060;28;20052;-62
2023/01/11 11:13:40;;;;;;;29.27;16.33;;;;;;;;;;5013920;28;20026;-62
2023/01/11 11:16:21;;;;;;;21.17;15.57;;;;;;;;;;5015153;28;20033;-64
2023/01/11 11:18:48;;;;;;;28.90;16.02;;;;;;;;;;5015253;28;20025;-65
2023/01/11 11:21:37;;;;;;;27.27;15.60;;;;;;;;;;5016029;28;20101;-64
2023/01/11 11:24:13;;;;;;;21.45;14.38;;;;;;;;;;5010802;28;20038;-64
2023/01/11 11:26:40;;;;;;;21.58;14.95;;;;;;;;;;5015598;28;20026;-63
2023/01/11 11:29:08;;;;;;;28.40;15.77;;;;;;;;;;5015187;28;20033;-60
2023/01/11 11:31:35;;;;;;;24.85;15.02;;;;;;;;;;5015299;28;20028;-62
2023/01/11 11:34:13;;;;;;;23.50;15.50;;;;;;;;;;5014936;28;20034;-63
2023/01/11 11:36:43;;;;;;;27.63;14.57;;;;;;;;;;5015232;28;20402;-65
2023/01/11 11:39:18;;;;;;;25.75;14.57;;;;;;;;;;5013861;28;20018;-64
2023/01/11 11:41:57;;;;;;;24.02;14.52;;;;;;;;;;5014712;28;20543;-63
2023/01/11 11:44:27;;;;;;;22.42;14.07;;;;;;;;;;5014533;28;20394;-63
2023/01/11 11:47:00;;;;;;;21.98;13.75;;;;;;;;;;5014662;28;20450;-64
2023/01/11 11:49:27;;;;;;;22.20;12.80;;;;;;;;;;5015071;28;20087;-62
2023/01/11 11:51:53;;;;;;;25.20;12.10;;;;;;;;;;5014910;28;20444;-63
2023/01/11 11:54:31;;;;;;;24.42;11.95;;;;;;;;;;5014466;28;20438;-64
2023/01/11 11:56:59;;;;;;;23.73;11.52;;;;;;;;;;5016071;28;20026;-64
2023/01/11 11:59:27;;;;;;;20.53;10.80;;;;;;;;;;5017327;28;20052;-62
2023/01/11 12:02:04;;;;;;;20.30;11.73;;;;;;;;;;5016404;28;20026;-64
2023/01/11 12:04:43;;;;;;;25.85;12.02;;;;;;;;;;5014479;28;20328;-64
2023/01/11 12:07:17;;;;;;;18.92;11.20;;;;;;;;;;5013534;28;20030;-64
2023/01/11 12:09:46;;;;;;;20.63;10.38;;;;;;;;;;5015361;28;20029;-63
2023/01/11 12:12:19;;;;;;;22.30;12.27;;;;;;;;;;5014668;28;20427;-61
2023/01/11 12:15:05;;;;;;;30.80;12.70;;;;;;;;;;5014263;28;20038;-62
2023/01/11 12:17:31;;;;;;;20.55;11.95;;;;;;;;;;5014414;28;20037;-62
2023/01/11 12:19:57;;;;;;;22.27;11.32;;;;;;;;;;5014308;28;20487;-61
2023/01/11 12:22:24;;;;;;;24.02;12.30;;;;;;;;;;5012825;28;20026;-61
2023/01/11 12:25:09;;;;;;;24.38;11.65;;;;;;;;;;5013384;28;20034;-63
2023/01/11 12:27:35;;;;;;;23.15;11.35;;;;;;;;;;5014866;28;20026;-63
2023/01/11 12:30:02;;;;;;;24.15;11.50;;;;;;;;;;5014085;28;20022;-60
2023/01/11 12:32:40;;;;;;;22.30;11.65;;;;;;;;;;5012839;28;20045;-60
2023/01/11 12:35:29;;;;;;;19.88;11.85;;;;;;;;;;5012127;28;20504;-62
2023/01/11 12:37:58;;;;;;;17.98;10.75;;;;;;;;;;5010876;28;20096;-57
2023/01/11 12:40:27;;;;;;;23.77;10.90;;;;;;;;;;5013827;28;20033;-61
2023/01/11 12:42:59;;;;;;;23.63;13.07;;;;;;;;;;5013799;28;20034;-54
2023/01/11 12:45:25;;;;;;;27.45;12.20;;;;;;;;;;5013375;28;20105;-61
2023/01/11 12:48:11;;;;;;;22.55;10.75;;;;;;;;;;5013607;28;20080;-54
2023/01/11 12:50:47;;;;;;;20.60;10.80;;;;;;;;;;5009907;28;20305;-57
2023/01/11 12:53:21;;;;;;;24.83;11.20;;;;;;;;;;5024089;28;20041;-55
2023/01/11 12:55:59;;;;;;;17.63;9.52;;;;;;;;;;5017253;28;20026;-59
2023/01/11 12:58:39;;;;;;;19.40;9.55;;;;;;;;;;5014569;28;20037;-56
2023/01/11 13:01:14;;;;;;;23.15;10.70;;;;;;;;;;5013519;28;20026;-60
2023/01/11 13:03:59;;;;;;;18.15;9.80;;;;;;;;;;5012678;28;20026;-62
2023/01/11 13:06:38;;;;;;;23.63;9.82;;;;;;;;;;4666153;28;10001046;-62
2023/01/11 13:09:16;;;;;;;16.17;8.68;;;;;;;;;;5001166;28;20033;-60
2023/01/11 13:11:54;;;;;;;21.00;9.85;;;;;;;;;;5029982;28;20025;-59
2023/01/11 13:14:39;;;;;;;20.05;10.38;;;;;;;;;;5016337;28;20099;-61
2023/01/11 13:17:24;;;;;;;21.10;9.30;;;;;;;;;;5009841;28;20037;-65
2023/01/11 13:19:53;;;;;;;20.15;9.30;;;;;;;;;;5009993;28;20556;-61
2023/01/11 13:22:22;;;;;;;17.73;8.55;;;;;;;;;;5018073;28;20047;-60
2023/01/11 13:24:50;;;;;;;25.05;8.90;;;;;;;;;;5029241;28;20485;-60
2023/01/11 13:27:19;;;;;;;23.60;9.98;;;;;;;;;;5030724;28;20107;-61
2023/01/11 13:29:46;;;;;;;18.33;8.15;;;;;;;;;;5031416;28;20115;-63
2023/01/11 13:32:15;;;;;;;19.63;9.05;;;;;;;;;;5032936;28;20029;-63
2023/01/11 13:35:04;;;;;;;18.55;8.80;;;;;;;;;;5032473;28;20025;-63
2023/01/11 13:37:39;;;;;;;20.38;8.98;;;;;;;;;;5032282;28;20044;-63
2023/01/11 13:40:25;;;;;;;19.45;9.02;;;;;;;;;;5017655;28;20367;-63
2023/01/11 13:43:00;;;;;;;23.58;8.75;;;;;;;;;;5012228;28;20387;-59
2023/01/11 13:45:29;;;;;;;18.25;8.93;;;;;;;;;;5012061;28;20026;-63
2023/01/11 13:47:57;;;;;;;24.27;10.02;;;;;;;;;;5012350;28;20090;-61
2023/01/11 13:50:23;;;;;;;20.45;8.82;;;;;;;;;;5012170;28;20390;-63
2023/01/11 13:52:49;;;;;;;19.60;9.93;;;;;;;;;;5011844;28;20120;-62
2023/01/11 13:55:21;;;;;;;24.80;10.52;;;;;;;;;;5011751;28;20110;-61
2023/01/11 13:57:54;;;;;;;22.75;9.77;;;;;;;;;;5010609;28;20047;-62
2023/01/11 14:00:22;;;;;;;21.63;9.23;;;;;;;;;;5010722;28;20022;-62
2023/01/11 14:02:51;;;;;;;19.42;8.95;;;;;;;;;;5012295;28;20402;-62
2023/01/11 14:05:20;;;;;;;23.27;10.30;;;;;;;;;;5010457;28;20033;-63
2023/01/11 14:07:46;;;;;;;24.10;9.40;;;;;;;;;;5011733;28;20022;-62
2023/01/11 14:10:30;;;;;;;19.02;9.15;;;;;;;;;;5011737;28;20429;-62
2023/01/11 14:13:00;;;;;;;21.50;9.85;;;;;;;;;;5015278;28;20022;-60
2023/01/11 14:15:26;;;;;;;21.27;9.93;;;;;;;;;;5030788;28;20437;-63
2023/01/11 14:18:10;;;;;;;24.73;10.52;;;;;;;;;;5029898;28;20021;-62
2023/01/11 14:20:42;;;;;;;21.42;9.93;;;;;;;;;;5031635;28;20022;-62
2023/01/11 14:23:12;;;;;;;22.10;10.05;;;;;;;;;;5031639;28;20051;-61
2023/01/11 14:25:45;;;;;;;24.17;10.77;;;;;;;;;;5029804;28;20033;-62
2023/01/11 14:28:29;;;;;;;20.38;10.60;;;;;;;;;;5032740;28;20084;-62
2023/01/11 14:30:58;;;;;;;21.40;10.45;;;;;;;;;;5042465;28;20033;-63
2023/01/11 14:33:31;;;;;;;18.08;9.90;;;;;;;;;;5029373;28;20029;-63
2023/01/11 14:36:00;;;;;;;22.85;10.73;;;;;;;;;;5030662;28;20029;-63
2023/01/11 14:38:33;;;;;;;24.98;10.98;;;;;;;;;;5029956;28;20040;-63
2023/01/11 14:41:02;;;;;;;20.15;10.20;;;;;;;;;;5031104;28;20048;-60
2023/01/11 14:43:31;;;;;;;23.85;11.50;;;;;;;;;;5030494;28;20021;-62
2023/01/11 14:45:57;;;;;;;23.35;11.75;;;;;;;;;;5030466;28;20030;-63
2023/01/11 14:48:42;;;;;;;25.27;10.45;;;;;;;;;;5029751;28;20087;-57
2023/01/11 14:51:20;;;;;;;26.40;10.77;;;;;;;;;;5030550;28;20125;-62
2023/01/11 14:53:52;;;;;;;22.77;10.77;;;;;;;;;;5028882;28;20041;-62
2023/01/11 14:56:52;;;;;;;24.08;11.45;;;;;;;;;;5030389;28;20073;-63
2023/01/11 14:59:31;;;;;;;23.13;11.27;;;;;;;;;;5030001;28;20044;-64
2023/01/11 15:02:04;;;;;;;21.75;12.18;;;;;;;;;;5031020;28;20029;-60
2023/01/11 15:04:36;;;;;;;22.38;11.23;;;;;;;;;;5032688;28;20021;-64
2023/01/11 15:07:21;;;;;;;21.52;10.43;;;;;;;;;;5024883;28;20390;-62
2023/01/11 15:09:48;;;;;;;23.02;12.00;;;;;;;;;;5010434;28;20068;-63